sensor_id;sensor_type;location;lat;lon;timestamp;temperature;humidity
14682;DHT22;7429;52.498;13.480;2024-03-22T00:02:10;8.60;99.90
14682;DHT22;7429;52.498;13.480;2024-03-22T00:05:12;8.60;99.90
14682;DHT22;7429;52.498;13.480;2024-03-22T00:08:14;8.60;99.90
14682;DHT22;7429;52.498;13.480;2024-03-22T00:11:16;8.60;99.90
14682;DHT22;7429;52.498;13.480;2024-03-22T00:14:19;8.50;99.90
14682;DHT22;7429;52.498;13.480;2024-03-22T00:17:22;8.50;99.90
14682;DHT22;7429;52.498;13.480;2024-03-22T00:20:23;8.40;99.90
14682;DHT22;7429;52.498;13.480;2024-03-22T00:23:25;8.60;99.90
14682;DHT22;7429;52.498;13.480;2024-03-22T00:26:26;8.60;99.90
14682;DHT22;7429;52.498;13.480;2024-03-22T00:29:30;8.60;99.90
14682;DHT22;7429;52.498;13.480;2024-03-22T00:32:32;8.60;99.90
14682;DHT22;7429;52.498;13.480;2024-03-22T00:35:34;8.50;99.90
14682;DHT22;7429;52.498;13.480;2024-03-22T00:38:36;8.60;99.90
14682;DHT22;7429;52.498;13.480;2024-03-22T00:41:38;8.50;99.90
14682;DHT22;7429;52.498;13.480;2024-03-22T00:44:41;8.60;99.90
14682;DHT22;7429;52.498;13.480;2024-03-22T00:47:43;8.60;99.90
14682;DHT22;7429;52.498;13.480;2024-03-22T00:50:44;8.50;99.90
14682;DHT22;7429;52.498;13.480;2024-03-22T00:53:47;8.60;99.90
14682;DHT22;7429;52.498;13.480;2024-03-22T00:56:48;8.60;99.90
14682;DHT22;7429;52.498;13.480;2024-03-22T00:59:51;8.60;99.90
14682;DHT22;7429;52.498;13.480;2024-03-22T01:02:53;8.60;99.90
14682;DHT22;7429;52.498;13.480;2024-03-22T01:05:55;8.60;99.90
14682;DHT22;7429;52.498;13.480;2024-03-22T01:08:58;8.60;99.90
14682;DHT22;7429;52.498;13.480;2024-03-22T01:12:00;8.60;99.90
14682;DHT22;7429;52.498;13.480;2024-03-22T01:15:04;8.60;99.90
14682;DHT22;7429;52.498;13.480;2024-03-22T01:18:07;8.50;99.90
14682;DHT22;7429;52.498;13.480;2024-03-22T01:21:08;8.60;99.90
14682;DHT22;7429;52.498;13.480;2024-03-22T01:24:10;8.50;99.90
14682;DHT22;7429;52.498;13.480;2024-03-22T01:27:13;8.50;99.90
14682;DHT22;7429;52.498;13.480;2024-03-22T01:30:16;8.50;99.90
14682;DHT22;7429;52.498;13.480;2024-03-22T01:33:18;8.50;99.90
14682;DHT22;7429;52.498;13.480;2024-03-22T01:36:20;8.40;99.90
14682;DHT22;7429;52.498;13.480;2024-03-22T01:39:21;8.40;99.90
14682;DHT22;7429;52.498;13.480;2024-03-22T01:42:23;8.40;99.90
14682;DHT22;7429;52.498;13.480;2024-03-22T01:45:32;8.40;99.90
14682;DHT22;7429;52.498;13.480;2024-03-22T01:48:34;8.40;99.90
14682;DHT22;7429;52.498;13.480;2024-03-22T01:51:36;8.30;99.90
14682;DHT22;7429;52.498;13.480;2024-03-22T01:54:37;8.30;99.90
14682;DHT22;7429;52.498;13.480;2024-03-22T01:57:40;8.30;99.90
14682;DHT22;7429;52.498;13.480;2024-03-22T02:00:45;8.30;99.90
14682;DHT22;7429;52.498;13.480;2024-03-22T02:03:47;8.40;99.90
14682;DHT22;7429;52.498;13.480;2024-03-22T02:06:49;8.40;99.90
14682;DHT22;7429;52.498;13.480;2024-03-22T02:09:51;8.40;99.90
14682;DHT22;7429;52.498;13.480;2024-03-22T02:12:52;8.40;99.90
14682;DHT22;7429;52.498;13.480;2024-03-22T02:15:57;8.40;99.90
14682;DHT22;7429;52.498;13.480;2024-03-22T02:18:58;8.40;99.90
14682;DHT22;7429;52.498;13.480;2024-03-22T02:22:00;8.40;99.90
14682;DHT22;7429;52.498;13.480;2024-03-22T02:25:04;8.40;99.90
14682;DHT22;7429;52.498;13.480;2024-03-22T02:28:08;8.40;99.90
14682;DHT22;7429;52.498;13.480;2024-03-22T02:31:10;8.40;99.90
14682;DHT22;7429;52.498;13.480;2024-03-22T02:34:12;8.40;99.90
14682;DHT22;7429;52.498;13.480;2024-03-22T02:37:14;8.40;99.90
14682;DHT22;7429;52.498;13.480;2024-03-22T02:40:17;8.40;99.90
14682;DHT22;7429;52.498;13.480;2024-03-22T02:43:19;8.40;99.90
14682;DHT22;7429;52.498;13.480;2024-03-22T02:46:22;8.40;99.90
14682;DHT22;7429;52.498;13.480;2024-03-22T02:49:24;8.30;99.90
14682;DHT22;7429;52.498;13.480;2024-03-22T02:52:27;8.30;99.90
14682;DHT22;7429;52.498;13.480;2024-03-22T02:55:30;8.40;99.90
14682;DHT22;7429;52.498;13.480;2024-03-22T02:58:38;8.40;99.90
14682;DHT22;7429;52.498;13.480;2024-03-22T03:01:39;8.40;99.90
14682;DHT22;7429;52.498;13.480;2024-03-22T03:04:41;8.50;99.90
14682;DHT22;7429;52.498;13.480;2024-03-22T03:07:42;8.40;99.90
14682;DHT22;7429;52.498;13.480;2024-03-22T03:10:46;8.30;99.90
14682;DHT22;7429;52.498;13.480;2024-03-22T03:13:47;8.40;99.90
14682;DHT22;7429;52.498;13.480;2024-03-22T03:16:49;8.40;99.90
14682;DHT22;7429;52.498;13.480;2024-03-22T03:19:51;8.30;99.90
14682;DHT22;7429;52.498;13.480;2024-03-22T03:22:53;8.30;99.90
14682;DHT22;7429;52.498;13.480;2024-03-22T03:25:55;8.30;99.90
14682;DHT22;7429;52.498;13.480;2024-03-22T03:28:57;8.20;99.90
14682;DHT22;7429;52.498;13.480;2024-03-22T03:32:00;8.30;99.90
14682;DHT22;7429;52.498;13.480;2024-03-22T03:35:01;8.20;99.90
14682;DHT22;7429;52.498;13.480;2024-03-22T03:38:05;8.20;99.90
14682;DHT22;7429;52.498;13.480;2024-03-22T03:41:08;8.20;99.90
14682;DHT22;7429;52.498;13.480;2024-03-22T03:44:10;8.20;99.90
14682;DHT22;7429;52.498;13.480;2024-03-22T03:47:12;8.20;99.90
14682;DHT22;7429;52.498;13.480;2024-03-22T03:50:14;8.30;99.90
14682;DHT22;7429;52.498;13.480;2024-03-22T03:53:16;8.30;99.90
14682;DHT22;7429;52.498;13.480;2024-03-22T03:56:20;8.40;99.90
14682;DHT22;7429;52.498;13.480;2024-03-22T03:59:22;8.40;99.90
14682;DHT22;7429;52.498;13.480;2024-03-22T04:02:24;8.40;99.90
14682;DHT22;7429;52.498;13.480;2024-03-22T04:05:26;8.30;99.90
14682;DHT22;7429;52.498;13.480;2024-03-22T04:08:28;8.30;99.90
14682;DHT22;7429;52.498;13.480;2024-03-22T04:11:33;8.40;99.90
14682;DHT22;7429;52.498;13.480;2024-03-22T04:14:34;8.30;99.90
14682;DHT22;7429;52.498;13.480;2024-03-22T04:17:36;8.30;99.90
14682;DHT22;7429;52.498;13.480;2024-03-22T04:20:38;8.30;99.90
14682;DHT22;7429;52.498;13.480;2024-03-22T04:23:40;8.30;99.90
14682;DHT22;7429;52.498;13.480;2024-03-22T04:26:44;8.30;99.90
14682;DHT22;7429;52.498;13.480;2024-03-22T04:29:47;8.20;99.90
14682;DHT22;7429;52.498;13.480;2024-03-22T04:32:48;8.20;99.90
14682;DHT22;7429;52.498;13.480;2024-03-22T04:35:50;8.20;99.90
14682;DHT22;7429;52.498;13.480;2024-03-22T04:38:53;8.20;99.90
14682;DHT22;7429;52.498;13.480;2024-03-22T04:41:56;8.30;99.90
14682;DHT22;7429;52.498;13.480;2024-03-22T04:44:58;8.30;99.90
14682;DHT22;7429;52.498;13.480;2024-03-22T04:48:02;8.30;99.90
14682;DHT22;7429;52.498;13.480;2024-03-22T04:51:04;8.30;99.90
14682;DHT22;7429;52.498;13.480;2024-03-22T04:54:06;8.30;99.90
14682;DHT22;7429;52.498;13.480;2024-03-22T04:57:09;8.30;99.90
14682;DHT22;7429;52.498;13.480;2024-03-22T05:00:12;8.30;99.90
14682;DHT22;7429;52.498;13.480;2024-03-22T05:03:15;8.20;99.90
14682;DHT22;7429;52.498;13.480;2024-03-22T05:06:18;8.30;99.90
14682;DHT22;7429;52.498;13.480;2024-03-22T05:09:19;8.20;99.90
14682;DHT22;7429;52.498;13.480;2024-03-22T05:12:23;8.20;99.90
14682;DHT22;7429;52.498;13.480;2024-03-22T05:15:24;8.30;99.90
14682;DHT22;7429;52.498;13.480;2024-03-22T05:18:27;8.20;99.90
14682;DHT22;7429;52.498;13.480;2024-03-22T05:21:29;8.20;99.90
14682;DHT22;7429;52.498;13.480;2024-03-22T05:24:31;8.20;99.90
14682;DHT22;7429;52.498;13.480;2024-03-22T05:27:34;8.30;99.90
14682;DHT22;7429;52.498;13.480;2024-03-22T05:30:36;8.40;99.90
14682;DHT22;7429;52.498;13.480;2024-03-22T05:33:37;8.30;99.90
14682;DHT22;7429;52.498;13.480;2024-03-22T05:36:40;8.30;99.90
14682;DHT22;7429;52.498;13.480;2024-03-22T05:39:41;8.30;99.90
14682;DHT22;7429;52.498;13.480;2024-03-22T05:42:45;8.30;99.90
14682;DHT22;7429;52.498;13.480;2024-03-22T05:45:46;8.30;99.90
14682;DHT22;7429;52.498;13.480;2024-03-22T05:48:49;8.40;99.90
14682;DHT22;7429;52.498;13.480;2024-03-22T05:51:57;8.40;99.90
14682;DHT22;7429;52.498;13.480;2024-03-22T05:54:59;8.40;99.90
14682;DHT22;7429;52.498;13.480;2024-03-22T05:58:04;8.40;99.90
14682;DHT22;7429;52.498;13.480;2024-03-22T06:01:09;8.40;99.90
14682;DHT22;7429;52.498;13.480;2024-03-22T06:04:12;8.50;99.90
14682;DHT22;7429;52.498;13.480;2024-03-22T06:07:14;8.50;99.90
14682;DHT22;7429;52.498;13.480;2024-03-22T06:10:17;8.50;99.90
14682;DHT22;7429;52.498;13.480;2024-03-22T06:13:21;8.60;99.90
14682;DHT22;7429;52.498;13.480;2024-03-22T06:16:22;8.70;99.90
14682;DHT22;7429;52.498;13.480;2024-03-22T06:19:30;8.70;99.90
14682;DHT22;7429;52.498;13.480;2024-03-22T06:22:33;8.70;99.90
14682;DHT22;7429;52.498;13.480;2024-03-22T06:25:34;8.80;99.90
14682;DHT22;7429;52.498;13.480;2024-03-22T06:28:39;8.80;99.90
14682;DHT22;7429;52.498;13.480;2024-03-22T06:31:40;8.80;99.90
14682;DHT22;7429;52.498;13.480;2024-03-22T06:34:50;8.90;99.90
14682;DHT22;7429;52.498;13.480;2024-03-22T06:37:55;8.90;99.90
14682;DHT22;7429;52.498;13.480;2024-03-22T06:40:59;8.90;99.90
14682;DHT22;7429;52.498;13.480;2024-03-22T06:44:05;8.90;99.90
14682;DHT22;7429;52.498;13.480;2024-03-22T06:47:08;9.00;99.90
14682;DHT22;7429;52.498;13.480;2024-03-22T06:50:12;9.00;99.90
14682;DHT22;7429;52.498;13.480;2024-03-22T06:53:14;9.00;99.90
14682;DHT22;7429;52.498;13.480;2024-03-22T06:56:17;9.00;99.90
14682;DHT22;7429;52.498;13.480;2024-03-22T06:59:20;9.10;99.90
14682;DHT22;7429;52.498;13.480;2024-03-22T07:02:22;9.00;99.90
14682;DHT22;7429;52.498;13.480;2024-03-22T07:05:25;9.10;99.90
14682;DHT22;7429;52.498;13.480;2024-03-22T07:08:27;9.10;99.90
14682;DHT22;7429;52.498;13.480;2024-03-22T07:11:29;9.10;99.90
14682;DHT22;7429;52.498;13.480;2024-03-22T07:14:35;9.10;99.90
14682;DHT22;7429;52.498;13.480;2024-03-22T07:17:36;9.10;99.90
14682;DHT22;7429;52.498;13.480;2024-03-22T07:20:38;9.10;99.90
14682;DHT22;7429;52.498;13.480;2024-03-22T07:23:40;9.20;99.90
14682;DHT22;7429;52.498;13.480;2024-03-22T07:26:43;9.20;99.90
14682;DHT22;7429;52.498;13.480;2024-03-22T07:29:47;9.30;99.90
14682;DHT22;7429;52.498;13.480;2024-03-22T07:32:48;9.40;99.90
14682;DHT22;7429;52.498;13.480;2024-03-22T07:35:52;9.50;99.90
14682;DHT22;7429;52.498;13.480;2024-03-22T07:38:55;9.50;99.90
14682;DHT22;7429;52.498;13.480;2024-03-22T07:41:59;9.60;99.90
14682;DHT22;7429;52.498;13.480;2024-03-22T07:45:02;9.50;99.90
14682;DHT22;7429;52.498;13.480;2024-03-22T07:48:06;9.50;99.90
14682;DHT22;7429;52.498;13.480;2024-03-22T07:51:08;9.60;99.90
14682;DHT22;7429;52.498;13.480;2024-03-22T07:54:11;9.60;99.90
14682;DHT22;7429;52.498;13.480;2024-03-22T07:57:12;9.60;99.90
14682;DHT22;7429;52.498;13.480;2024-03-22T08:00:16;9.60;99.90
14682;DHT22;7429;52.498;13.480;2024-03-22T08:03:18;9.70;99.90
14682;DHT22;7429;52.498;13.480;2024-03-22T08:06:20;9.70;99.90
14682;DHT22;7429;52.498;13.480;2024-03-22T08:09:21;9.80;99.90
14682;DHT22;7429;52.498;13.480;2024-03-22T08:12:23;9.80;99.90
14682;DHT22;7429;52.498;13.480;2024-03-22T08:15:26;9.80;99.90
14682;DHT22;7429;52.498;13.480;2024-03-22T08:18:29;9.90;99.90
14682;DHT22;7429;52.498;13.480;2024-03-22T08:21:31;10.00;99.90
14682;DHT22;7429;52.498;13.480;2024-03-22T08:24:33;10.00;99.90
14682;DHT22;7429;52.498;13.480;2024-03-22T08:27:35;10.00;99.90
14682;DHT22;7429;52.498;13.480;2024-03-22T08:30:38;10.10;99.90
14682;DHT22;7429;52.498;13.480;2024-03-22T08:33:41;10.10;99.90
14682;DHT22;7429;52.498;13.480;2024-03-22T08:36:42;10.20;99.90
14682;DHT22;7429;52.498;13.480;2024-03-22T08:39:44;10.20;99.90
14682;DHT22;7429;52.498;13.480;2024-03-22T08:42:47;10.30;99.90
14682;DHT22;7429;52.498;13.480;2024-03-22T08:45:50;10.30;99.90
14682;DHT22;7429;52.498;13.480;2024-03-22T08:48:52;10.40;99.90
14682;DHT22;7429;52.498;13.480;2024-03-22T08:51:54;10.40;99.90
14682;DHT22;7429;52.498;13.480;2024-03-22T08:54:57;10.40;99.90
14682;DHT22;7429;52.498;13.480;2024-03-22T08:57:58;10.60;99.90
14682;DHT22;7429;52.498;13.480;2024-03-22T09:01:02;10.50;99.90
14682;DHT22;7429;52.498;13.480;2024-03-22T09:04:04;10.60;99.90
14682;DHT22;7429;52.498;13.480;2024-03-22T09:07:07;10.60;99.90
14682;DHT22;7429;52.498;13.480;2024-03-22T09:10:09;10.60;99.90
14682;DHT22;7429;52.498;13.480;2024-03-22T09:13:11;10.70;99.90
14682;DHT22;7429;52.498;13.480;2024-03-22T09:16:15;10.80;99.90
14682;DHT22;7429;52.498;13.480;2024-03-22T09:19:17;10.90;99.90
14682;DHT22;7429;52.498;13.480;2024-03-22T09:22:18;11.00;99.90
14682;DHT22;7429;52.498;13.480;2024-03-22T09:25:21;11.10;99.90
14682;DHT22;7429;52.498;13.480;2024-03-22T09:28:22;11.20;99.90
14682;DHT22;7429;52.498;13.480;2024-03-22T09:31:26;11.30;99.90
14682;DHT22;7429;52.498;13.480;2024-03-22T09:34:27;11.40;99.90
14682;DHT22;7429;52.498;13.480;2024-03-22T09:37:30;11.50;99.90
14682;DHT22;7429;52.498;13.480;2024-03-22T09:40:31;11.50;99.90
14682;DHT22;7429;52.498;13.480;2024-03-22T09:43:35;11.60;99.90
14682;DHT22;7429;52.498;13.480;2024-03-22T09:46:38;11.60;99.90
14682;DHT22;7429;52.498;13.480;2024-03-22T09:49:41;11.70;99.90
14682;DHT22;7429;52.498;13.480;2024-03-22T09:52:47;11.80;99.90
14682;DHT22;7429;52.498;13.480;2024-03-22T09:55:50;12.00;99.90
14682;DHT22;7429;52.498;13.480;2024-03-22T09:58:52;12.00;99.90
14682;DHT22;7429;52.498;13.480;2024-03-22T10:01:56;12.00;99.90
14682;DHT22;7429;52.498;13.480;2024-03-22T10:05:02;12.00;99.90
14682;DHT22;7429;52.498;13.480;2024-03-22T10:08:06;12.10;99.90
14682;DHT22;7429;52.498;13.480;2024-03-22T10:11:09;12.10;99.90
14682;DHT22;7429;52.498;13.480;2024-03-22T10:14:10;12.20;99.90
14682;DHT22;7429;52.498;13.480;2024-03-22T10:17:15;12.20;99.90
14682;DHT22;7429;52.498;13.480;2024-03-22T10:20:16;12.20;99.90
14682;DHT22;7429;52.498;13.480;2024-03-22T10:23:20;12.30;99.90
14682;DHT22;7429;52.498;13.480;2024-03-22T10:26:21;12.40;99.90
14682;DHT22;7429;52.498;13.480;2024-03-22T10:29:24;12.40;99.90
14682;DHT22;7429;52.498;13.480;2024-03-22T10:32:27;12.40;99.90
14682;DHT22;7429;52.498;13.480;2024-03-22T10:35:30;12.40;99.90
14682;DHT22;7429;52.498;13.480;2024-03-22T10:38:36;12.50;99.90
14682;DHT22;7429;52.498;13.480;2024-03-22T10:41:40;12.60;99.90
14682;DHT22;7429;52.498;13.480;2024-03-22T10:44:45;12.70;99.90
14682;DHT22;7429;52.498;13.480;2024-03-22T10:47:49;12.70;99.90
14682;DHT22;7429;52.498;13.480;2024-03-22T10:50:53;12.80;99.90
14682;DHT22;7429;52.498;13.480;2024-03-22T10:53:57;13.00;99.90
14682;DHT22;7429;52.498;13.480;2024-03-22T10:57:00;13.10;99.90
14682;DHT22;7429;52.498;13.480;2024-03-22T11:00:03;13.30;99.90
14682;DHT22;7429;52.498;13.480;2024-03-22T11:03:12;13.50;99.90
14682;DHT22;7429;52.498;13.480;2024-03-22T11:06:18;13.50;99.90
14682;DHT22;7429;52.498;13.480;2024-03-22T11:09:22;13.70;99.90
14682;DHT22;7429;52.498;13.480;2024-03-22T11:12:26;13.70;99.90
14682;DHT22;7429;52.498;13.480;2024-03-22T11:15:29;13.50;99.90
14682;DHT22;7429;52.498;13.480;2024-03-22T11:18:33;13.70;99.90
14682;DHT22;7429;52.498;13.480;2024-03-22T11:21:34;13.90;99.90
14682;DHT22;7429;52.498;13.480;2024-03-22T11:24:37;14.10;99.90
14682;DHT22;7429;52.498;13.480;2024-03-22T11:27:39;14.20;99.90
14682;DHT22;7429;52.498;13.480;2024-03-22T11:30:42;13.90;99.90
14682;DHT22;7429;52.498;13.480;2024-03-22T11:33:46;13.80;99.90
14682;DHT22;7429;52.498;13.480;2024-03-22T11:36:49;13.90;99.90
14682;DHT22;7429;52.498;13.480;2024-03-22T11:39:52;13.80;99.90
14682;DHT22;7429;52.498;13.480;2024-03-22T11:42:56;13.70;99.90
14682;DHT22;7429;52.498;13.480;2024-03-22T11:45:59;13.70;99.90
14682;DHT22;7429;52.498;13.480;2024-03-22T11:49:04;13.50;99.90
14682;DHT22;7429;52.498;13.480;2024-03-22T11:52:08;13.40;99.90
14682;DHT22;7429;52.498;13.480;2024-03-22T11:55:10;13.40;99.90
14682;DHT22;7429;52.498;13.480;2024-03-22T11:58:14;13.30;99.90
14682;DHT22;7429;52.498;13.480;2024-03-22T12:01:16;13.30;99.90
14682;DHT22;7429;52.498;13.480;2024-03-22T12:04:19;13.30;99.90
14682;DHT22;7429;52.498;13.480;2024-03-22T12:07:22;13.40;99.90
14682;DHT22;7429;52.498;13.480;2024-03-22T12:10:24;13.30;99.90
14682;DHT22;7429;52.498;13.480;2024-03-22T12:13:27;13.20;99.90
14682;DHT22;7429;52.498;13.480;2024-03-22T12:16:28;13.30;99.90
14682;DHT22;7429;52.498;13.480;2024-03-22T12:19:32;13.30;99.90
14682;DHT22;7429;52.498;13.480;2024-03-22T12:22:34;13.20;99.90
14682;DHT22;7429;52.498;13.480;2024-03-22T12:25:36;13.10;99.90
14682;DHT22;7429;52.498;13.480;2024-03-22T12:28:38;13.00;99.90
14682;DHT22;7429;52.498;13.480;2024-03-22T12:31:40;13.00;99.90
14682;DHT22;7429;52.498;13.480;2024-03-22T12:34:43;12.90;99.90
14682;DHT22;7429;52.498;13.480;2024-03-22T12:37:46;12.80;99.90
14682;DHT22;7429;52.498;13.480;2024-03-22T12:40:47;12.80;99.90
14682;DHT22;7429;52.498;13.480;2024-03-22T12:43:50;12.70;99.90
14682;DHT22;7429;52.498;13.480;2024-03-22T12:46:51;12.70;99.90
14682;DHT22;7429;52.498;13.480;2024-03-22T12:49:56;12.70;99.90
14682;DHT22;7429;52.498;13.480;2024-03-22T12:52:58;12.70;99.90
14682;DHT22;7429;52.498;13.480;2024-03-22T12:56:00;12.60;99.90
14682;DHT22;7429;52.498;13.480;2024-03-22T12:59:02;12.60;99.90
14682;DHT22;7429;52.498;13.480;2024-03-22T13:02:04;12.60;99.90
14682;DHT22;7429;52.498;13.480;2024-03-22T13:05:08;12.60;99.90
14682;DHT22;7429;52.498;13.480;2024-03-22T13:08:10;12.60;99.90
14682;DHT22;7429;52.498;13.480;2024-03-22T13:11:13;12.50;99.90
14682;DHT22;7429;52.498;13.480;2024-03-22T13:14:15;12.60;99.90
14682;DHT22;7429;52.498;13.480;2024-03-22T13:17:17;12.40;99.90
14682;DHT22;7429;52.498;13.480;2024-03-22T13:20:20;12.40;99.90
14682;DHT22;7429;52.498;13.480;2024-03-22T13:23:22;12.20;99.90
14682;DHT22;7429;52.498;13.480;2024-03-22T13:26:23;12.10;99.90
14682;DHT22;7429;52.498;13.480;2024-03-22T13:29:26;12.00;99.90
14682;DHT22;7429;52.498;13.480;2024-03-22T13:32:27;12.00;99.90
14682;DHT22;7429;52.498;13.480;2024-03-22T13:35:31;12.00;99.90
14682;DHT22;7429;52.498;13.480;2024-03-22T13:38:34;12.00;99.90
14682;DHT22;7429;52.498;13.480;2024-03-22T13:41:36;12.00;99.90
14682;DHT22;7429;52.498;13.480;2024-03-22T13:44:38;12.00;99.90
14682;DHT22;7429;52.498;13.480;2024-03-22T13:47:39;12.00;99.90
14682;DHT22;7429;52.498;13.480;2024-03-22T13:50:44;12.00;99.90
14682;DHT22;7429;52.498;13.480;2024-03-22T13:53:46;12.10;99.90
14682;DHT22;7429;52.498;13.480;2024-03-22T13:56:48;12.10;99.90
14682;DHT22;7429;52.498;13.480;2024-03-22T13:59:49;12.10;99.90
14682;DHT22;7429;52.498;13.480;2024-03-22T14:02:52;12.10;99.90
14682;DHT22;7429;52.498;13.480;2024-03-22T14:05:57;12.20;99.90
14682;DHT22;7429;52.498;13.480;2024-03-22T14:08:59;12.30;99.90
14682;DHT22;7429;52.498;13.480;2024-03-22T14:12:02;12.30;99.90
14682;DHT22;7429;52.498;13.480;2024-03-22T14:15:05;12.40;99.90
14682;DHT22;7429;52.498;13.480;2024-03-22T14:18:07;12.50;99.90
14682;DHT22;7429;52.498;13.480;2024-03-22T14:21:11;12.50;99.90
14682;DHT22;7429;52.498;13.480;2024-03-22T14:24:18;12.50;99.90
14682;DHT22;7429;52.498;13.480;2024-03-22T14:27:20;12.40;99.90
14682;DHT22;7429;52.498;13.480;2024-03-22T14:30:21;12.50;99.90
14682;DHT22;7429;52.498;13.480;2024-03-22T14:33:26;12.40;99.90
14682;DHT22;7429;52.498;13.480;2024-03-22T14:36:29;12.40;99.90
14682;DHT22;7429;52.498;13.480;2024-03-22T14:39:30;12.50;99.90
14682;DHT22;7429;52.498;13.480;2024-03-22T14:42:34;12.50;99.90
14682;DHT22;7429;52.498;13.480;2024-03-22T14:45:36;12.50;99.90
14682;DHT22;7429;52.498;13.480;2024-03-22T14:48:37;12.50;99.90
14682;DHT22;7429;52.498;13.480;2024-03-22T14:51:41;12.40;99.90
14682;DHT22;7429;52.498;13.480;2024-03-22T14:54:42;12.40;99.90
14682;DHT22;7429;52.498;13.480;2024-03-22T14:57:45;12.40;99.90
14682;DHT22;7429;52.498;13.480;2024-03-22T15:00:53;12.30;99.90
14682;DHT22;7429;52.498;13.480;2024-03-22T15:03:56;12.30;99.90
14682;DHT22;7429;52.498;13.480;2024-03-22T15:06:59;12.20;99.90
14682;DHT22;7429;52.498;13.480;2024-03-22T15:10:03;12.20;99.90
14682;DHT22;7429;52.498;13.480;2024-03-22T15:13:05;12.30;99.90
14682;DHT22;7429;52.498;13.480;2024-03-22T15:16:08;12.30;99.90
14682;DHT22;7429;52.498;13.480;2024-03-22T15:19:16;12.20;99.90
14682;DHT22;7429;52.498;13.480;2024-03-22T15:22:21;12.20;99.90
14682;DHT22;7429;52.498;13.480;2024-03-22T15:25:28;12.20;99.90
14682;DHT22;7429;52.498;13.480;2024-03-22T15:28:32;12.20;99.90
14682;DHT22;7429;52.498;13.480;2024-03-22T15:31:35;12.20;99.90
14682;DHT22;7429;52.498;13.480;2024-03-22T15:34:36;12.10;99.90
14682;DHT22;7429;52.498;13.480;2024-03-22T15:37:40;12.10;99.90
14682;DHT22;7429;52.498;13.480;2024-03-22T15:40:43;12.10;99.90
14682;DHT22;7429;52.498;13.480;2024-03-22T15:43:48;12.10;99.90
14682;DHT22;7429;52.498;13.480;2024-03-22T15:46:50;12.10;99.90
14682;DHT22;7429;52.498;13.480;2024-03-22T15:49:52;12.00;99.90
14682;DHT22;7429;52.498;13.480;2024-03-22T15:52:57;12.00;99.90
14682;DHT22;7429;52.498;13.480;2024-03-22T15:55:59;12.00;99.90
14682;DHT22;7429;52.498;13.480;2024-03-22T15:59:02;12.00;99.90
14682;DHT22;7429;52.498;13.480;2024-03-22T16:02:06;12.00;99.90
14682;DHT22;7429;52.498;13.480;2024-03-22T16:05:08;12.00;99.90
14682;DHT22;7429;52.498;13.480;2024-03-22T16:08:13;12.00;99.90
14682;DHT22;7429;52.498;13.480;2024-03-22T16:11:15;11.90;99.90
14682;DHT22;7429;52.498;13.480;2024-03-22T16:14:17;11.90;99.90
14682;DHT22;7429;52.498;13.480;2024-03-22T16:17:22;11.90;99.90
14682;DHT22;7429;52.498;13.480;2024-03-22T16:20:25;11.80;99.90
14682;DHT22;7429;52.498;13.480;2024-03-22T16:23:28;11.80;99.90
14682;DHT22;7429;52.498;13.480;2024-03-22T16:26:30;11.80;99.90
14682;DHT22;7429;52.498;13.480;2024-03-22T16:29:33;11.80;99.90
14682;DHT22;7429;52.498;13.480;2024-03-22T16:32:35;11.80;99.90
14682;DHT22;7429;52.498;13.480;2024-03-22T16:35:37;11.80;99.90
14682;DHT22;7429;52.498;13.480;2024-03-22T16:38:40;11.70;99.90
14682;DHT22;7429;52.498;13.480;2024-03-22T16:41:42;11.70;99.90
14682;DHT22;7429;52.498;13.480;2024-03-22T16:44:44;11.70;99.90
14682;DHT22;7429;52.498;13.480;2024-03-22T16:47:46;11.80;99.90
14682;DHT22;7429;52.498;13.480;2024-03-22T16:50:49;11.70;99.90
14682;DHT22;7429;52.498;13.480;2024-03-22T16:53:52;11.60;99.90
14682;DHT22;7429;52.498;13.480;2024-03-22T16:56:55;11.60;99.90
14682;DHT22;7429;52.498;13.480;2024-03-22T16:59:57;11.60;99.90
14682;DHT22;7429;52.498;13.480;2024-03-22T17:02:59;11.50;99.90
14682;DHT22;7429;52.498;13.480;2024-03-22T17:06:01;11.60;99.90
14682;DHT22;7429;52.498;13.480;2024-03-22T17:09:06;11.50;99.90
14682;DHT22;7429;52.498;13.480;2024-03-22T17:12:12;11.40;99.90
14682;DHT22;7429;52.498;13.480;2024-03-22T17:15:14;11.40;99.90
14682;DHT22;7429;52.498;13.480;2024-03-22T17:18:16;11.40;99.90
14682;DHT22;7429;52.498;13.480;2024-03-22T17:21:18;11.50;99.90
14682;DHT22;7429;52.498;13.480;2024-03-22T17:24:24;11.40;99.90
14682;DHT22;7429;52.498;13.480;2024-03-22T17:27:28;11.40;99.90
14682;DHT22;7429;52.498;13.480;2024-03-22T17:30:30;11.40;99.90
14682;DHT22;7429;52.498;13.480;2024-03-22T17:33:33;11.40;99.90
14682;DHT22;7429;52.498;13.480;2024-03-22T17:36:34;11.30;99.90
14682;DHT22;7429;52.498;13.480;2024-03-22T17:39:38;11.40;99.90
14682;DHT22;7429;52.498;13.480;2024-03-22T17:42:41;11.30;99.90
14682;DHT22;7429;52.498;13.480;2024-03-22T17:45:42;11.30;99.90
14682;DHT22;7429;52.498;13.480;2024-03-22T17:48:44;11.40;99.90
14682;DHT22;7429;52.498;13.480;2024-03-22T17:51:46;11.30;99.90
14682;DHT22;7429;52.498;13.480;2024-03-22T17:54:56;11.30;99.90
14682;DHT22;7429;52.498;13.480;2024-03-22T17:57:58;11.30;99.90
14682;DHT22;7429;52.498;13.480;2024-03-22T18:00:59;11.30;99.90
14682;DHT22;7429;52.498;13.480;2024-03-22T18:04:02;11.20;99.90
14682;DHT22;7429;52.498;13.480;2024-03-22T18:07:05;11.20;99.90
14682;DHT22;7429;52.498;13.480;2024-03-22T18:10:08;11.20;99.90
14682;DHT22;7429;52.498;13.480;2024-03-22T18:13:10;11.20;99.90
14682;DHT22;7429;52.498;13.480;2024-03-22T18:16:12;11.20;99.90
14682;DHT22;7429;52.498;13.480;2024-03-22T18:19:14;11.10;99.90
14682;DHT22;7429;52.498;13.480;2024-03-22T18:22:15;11.10;99.90
14682;DHT22;7429;52.498;13.480;2024-03-22T18:25:20;11.20;99.90
14682;DHT22;7429;52.498;13.480;2024-03-22T18:28:24;11.10;99.90
14682;DHT22;7429;52.498;13.480;2024-03-22T18:31:27;11.10;99.90
14682;DHT22;7429;52.498;13.480;2024-03-22T18:34:28;11.10;99.90
14682;DHT22;7429;52.498;13.480;2024-03-22T18:37:31;11.10;99.90
14682;DHT22;7429;52.498;13.480;2024-03-22T18:40:35;11.20;99.90
14682;DHT22;7429;52.498;13.480;2024-03-22T18:43:36;11.20;99.90
14682;DHT22;7429;52.498;13.480;2024-03-22T18:46:38;11.10;99.90
14682;DHT22;7429;52.498;13.480;2024-03-22T18:49:43;11.20;99.90
14682;DHT22;7429;52.498;13.480;2024-03-22T18:52:45;11.10;99.90
14682;DHT22;7429;52.498;13.480;2024-03-22T18:55:49;11.20;99.90
14682;DHT22;7429;52.498;13.480;2024-03-22T18:58:51;11.10;99.90
14682;DHT22;7429;52.498;13.480;2024-03-22T19:01:53;11.20;99.90
14682;DHT22;7429;52.498;13.480;2024-03-22T19:04:56;11.30;99.90
14682;DHT22;7429;52.498;13.480;2024-03-22T19:07:58;11.20;99.90
14682;DHT22;7429;52.498;13.480;2024-03-22T19:11:01;11.10;99.90
14682;DHT22;7429;52.498;13.480;2024-03-22T19:14:03;11.10;99.90
14682;DHT22;7429;52.498;13.480;2024-03-22T19:17:05;11.10;99.90
14682;DHT22;7429;52.498;13.480;2024-03-22T19:20:10;11.20;99.90
14682;DHT22;7429;52.498;13.480;2024-03-22T19:23:15;11.10;99.90